sensor_id;sensor_type;location;lat;lon;timestamp;temperature;humidity
63260;DHT22;49390;51.380;0.098;2023-10-09T00:00:59;17.50;99.90
63260;DHT22;49390;51.380;0.098;2023-10-09T00:03:46;17.60;99.90
63260;DHT22;49390;51.380;0.098;2023-10-09T00:06:20;17.50;99.90
63260;DHT22;49390;51.380;0.098;2023-10-09T00:09:06;17.50;99.90
63260;DHT22;49390;51.380;0.098;2023-10-09T00:11:44;17.50;99.90
63260;DHT22;49390;51.380;0.098;2023-10-09T00:14:13;17.60;99.90
63260;DHT22;49390;51.380;0.098;2023-10-09T00:16:43;17.50;99.90
63260;DHT22;49390;51.380;0.098;2023-10-09T00:19:15;17.60;99.90
63260;DHT22;49390;51.380;0.098;2023-10-09T00:21:54;17.60;99.90
63260;DHT22;49390;51.380;0.098;2023-10-09T00:24:23;17.60;99.90
63260;DHT22;49390;51.380;0.098;2023-10-09T00:26:55;17.50;99.90
63260;DHT22;49390;51.380;0.098;2023-10-09T00:29:29;17.50;99.90
63260;DHT22;49390;51.380;0.098;2023-10-09T00:32:02;17.60;99.90
63260;DHT22;49390;51.380;0.098;2023-10-09T00:34:53;17.50;99.90
63260;DHT22;49390;51.380;0.098;2023-10-09T00:37:27;17.50;99.90
63260;DHT22;49390;51.380;0.098;2023-10-09T00:40:02;17.50;99.90
63260;DHT22;49390;51.380;0.098;2023-10-09T00:42:40;17.50;99.90
63260;DHT22;49390;51.380;0.098;2023-10-09T00:45:08;17.50;99.90
63260;DHT22;49390;51.380;0.098;2023-10-09T00:47:40;17.50;99.90
63260;DHT22;49390;51.380;0.098;2023-10-09T00:50:10;17.50;99.90
63260;DHT22;49390;51.380;0.098;2023-10-09T00:52:38;17.50;99.90
63260;DHT22;49390;51.380;0.098;2023-10-09T00:55:22;17.50;99.90
63260;DHT22;49390;51.380;0.098;2023-10-09T00:57:56;17.50;99.90
63260;DHT22;49390;51.380;0.098;2023-10-09T01:00:33;17.50;99.90
63260;DHT22;49390;51.380;0.098;2023-10-09T01:03:18;17.50;99.90
63260;DHT22;49390;51.380;0.098;2023-10-09T01:05:57;17.50;99.90
63260;DHT22;49390;51.380;0.098;2023-10-09T01:08:30;17.50;99.90
63260;DHT22;49390;51.380;0.098;2023-10-09T01:11:13;17.40;99.90
63260;DHT22;49390;51.380;0.098;2023-10-09T01:13:49;17.40;99.90
63260;DHT22;49390;51.380;0.098;2023-10-09T01:16:20;17.40;99.90
63260;DHT22;49390;51.380;0.098;2023-10-09T01:18:52;17.40;99.90
63260;DHT22;49390;51.380;0.098;2023-10-09T01:21:21;17.30;99.90
63260;DHT22;49390;51.380;0.098;2023-10-09T01:23:53;17.30;99.90
63260;DHT22;49390;51.380;0.098;2023-10-09T01:26:42;17.30;99.90
63260;DHT22;49390;51.380;0.098;2023-10-09T01:29:16;17.20;99.90
63260;DHT22;49390;51.380;0.098;2023-10-09T01:31:52;17.20;99.90
63260;DHT22;49390;51.380;0.098;2023-10-09T01:34:23;17.10;99.90
63260;DHT22;49390;51.380;0.098;2023-10-09T01:36:53;17.10;99.90
63260;DHT22;49390;51.380;0.098;2023-10-09T01:39:27;17.00;99.90
63260;DHT22;49390;51.380;0.098;2023-10-09T01:41:56;17.00;99.90
63260;DHT22;49390;51.380;0.098;2023-10-09T01:44:34;17.00;99.90
63260;DHT22;49390;51.380;0.098;2023-10-09T01:47:11;16.90;99.90
63260;DHT22;49390;51.380;0.098;2023-10-09T01:49:41;16.90;99.90
63260;DHT22;49390;51.380;0.098;2023-10-09T01:52:11;16.90;99.90
63260;DHT22;49390;51.380;0.098;2023-10-09T01:54:50;16.90;99.90
63260;DHT22;49390;51.380;0.098;2023-10-09T01:57:19;16.90;99.90
63260;DHT22;49390;51.380;0.098;2023-10-09T01:59:51;16.90;99.90
63260;DHT22;49390;51.380;0.098;2023-10-09T02:02:23;16.90;99.90
63260;DHT22;49390;51.380;0.098;2023-10-09T02:05:02;16.90;99.90
63260;DHT22;49390;51.380;0.098;2023-10-09T02:07:43;16.80;99.90
63260;DHT22;49390;51.380;0.098;2023-10-09T02:10:24;16.80;99.90
63260;DHT22;49390;51.380;0.098;2023-10-09T02:13:07;16.80;99.90
63260;DHT22;49390;51.380;0.098;2023-10-09T02:15:39;16.80;99.90
63260;DHT22;49390;51.380;0.098;2023-10-09T02:18:16;16.80;99.90
63260;DHT22;49390;51.380;0.098;2023-10-09T02:23:30;16.80;99.90
63260;DHT22;49390;51.380;0.098;2023-10-09T02:26:09;16.80;99.90
63260;DHT22;49390;51.380;0.098;2023-10-09T02:28:38;16.70;99.90
63260;DHT22;49390;51.380;0.098;2023-10-09T02:31:12;16.70;99.90
63260;DHT22;49390;51.380;0.098;2023-10-09T02:33:40;16.70;99.90
63260;DHT22;49390;51.380;0.098;2023-10-09T02:36:09;16.70;99.90
63260;DHT22;49390;51.380;0.098;2023-10-09T02:38:37;16.60;99.90
63260;DHT22;49390;51.380;0.098;2023-10-09T02:41:08;16.60;99.90
63260;DHT22;49390;51.380;0.098;2023-10-09T02:43:39;16.60;99.90
63260;DHT22;49390;51.380;0.098;2023-10-09T02:46:15;16.60;99.90
63260;DHT22;49390;51.380;0.098;2023-10-09T02:48:50;16.60;99.90
63260;DHT22;49390;51.380;0.098;2023-10-09T02:51:26;16.60;99.90
63260;DHT22;49390;51.380;0.098;2023-10-09T02:54:02;16.60;99.90
63260;DHT22;49390;51.380;0.098;2023-10-09T02:56:48;16.60;99.90
63260;DHT22;49390;51.380;0.098;2023-10-09T02:59:24;16.60;99.90
63260;DHT22;49390;51.380;0.098;2023-10-09T03:01:52;16.60;99.90
63260;DHT22;49390;51.380;0.098;2023-10-09T03:04:23;16.60;99.90
63260;DHT22;49390;51.380;0.098;2023-10-09T03:06:55;16.60;99.90
63260;DHT22;49390;51.380;0.098;2023-10-09T03:09:26;16.60;99.90
63260;DHT22;49390;51.380;0.098;2023-10-09T03:12:01;16.50;99.90
63260;DHT22;49390;51.380;0.098;2023-10-09T03:14:40;16.50;99.90
63260;DHT22;49390;51.380;0.098;2023-10-09T03:17:09;16.50;99.90
63260;DHT22;49390;51.380;0.098;2023-10-09T03:19:41;16.50;99.90
63260;DHT22;49390;51.380;0.098;2023-10-09T03:22:11;16.50;99.90
63260;DHT22;49390;51.380;0.098;2023-10-09T03:24:40;16.50;99.90
63260;DHT22;49390;51.380;0.098;2023-10-09T03:27:17;16.50;99.90
63260;DHT22;49390;51.380;0.098;2023-10-09T03:29:46;16.50;99.90
63260;DHT22;49390;51.380;0.098;2023-10-09T03:32:18;16.40;99.90
63260;DHT22;49390;51.380;0.098;2023-10-09T03:34:47;16.50;99.90
63260;DHT22;49390;51.380;0.098;2023-10-09T03:37:19;16.40;99.90
63260;DHT22;49390;51.380;0.098;2023-10-09T03:39:56;16.40;99.90
63260;DHT22;49390;51.380;0.098;2023-10-09T03:42:27;16.40;99.90
63260;DHT22;49390;51.380;0.098;2023-10-09T03:44:55;16.40;99.90
63260;DHT22;49390;51.380;0.098;2023-10-09T03:47:25;16.40;99.90
63260;DHT22;49390;51.380;0.098;2023-10-09T03:49:56;16.40;99.90
63260;DHT22;49390;51.380;0.098;2023-10-09T03:52:24;16.40;99.90
63260;DHT22;49390;51.380;0.098;2023-10-09T03:54:55;16.30;99.90
63260;DHT22;49390;51.380;0.098;2023-10-09T03:57:23;16.30;99.90
63260;DHT22;49390;51.380;0.098;2023-10-09T03:59:55;16.30;99.90
63260;DHT22;49390;51.380;0.098;2023-10-09T04:02:23;16.30;99.90
63260;DHT22;49390;51.380;0.098;2023-10-09T04:04:52;16.30;99.90
63260;DHT22;49390;51.380;0.098;2023-10-09T04:07:20;16.30;99.90
63260;DHT22;49390;51.380;0.098;2023-10-09T04:09:49;16.30;99.90
63260;DHT22;49390;51.380;0.098;2023-10-09T04:12:29;16.30;99.90
63260;DHT22;49390;51.380;0.098;2023-10-09T04:14:59;16.30;99.90
63260;DHT22;49390;51.380;0.098;2023-10-09T04:17:31;16.30;99.90
63260;DHT22;49390;51.380;0.098;2023-10-09T04:20:04;16.30;99.90
63260;DHT22;49390;51.380;0.098;2023-10-09T04:22:47;16.30;99.90
63260;DHT22;49390;51.380;0.098;2023-10-09T04:25:22;16.30;99.90
63260;DHT22;49390;51.380;0.098;2023-10-09T04:27:58;16.30;99.90
63260;DHT22;49390;51.380;0.098;2023-10-09T04:30:48;16.30;99.90
63260;DHT22;49390;51.380;0.098;2023-10-09T04:33:22;16.30;99.90
63260;DHT22;49390;51.380;0.098;2023-10-09T04:36:17;16.20;99.90
63260;DHT22;49390;51.380;0.098;2023-10-09T04:38:51;16.20;99.90
63260;DHT22;49390;51.380;0.098;2023-10-09T04:41:33;16.20;99.90
63260;DHT22;49390;51.380;0.098;2023-10-09T04:44:10;16.20;99.90
63260;DHT22;49390;51.380;0.098;2023-10-09T04:46:49;16.20;99.90
63260;DHT22;49390;51.380;0.098;2023-10-09T04:49:41;16.10;99.90
63260;DHT22;49390;51.380;0.098;2023-10-09T04:52:16;16.10;99.90
63260;DHT22;49390;51.380;0.098;2023-10-09T04:55:07;16.10;99.90
63260;DHT22;49390;51.380;0.098;2023-10-09T04:57:40;16.10;99.90
63260;DHT22;49390;51.380;0.098;2023-10-09T05:00:16;16.10;99.90
63260;DHT22;49390;51.380;0.098;2023-10-09T05:02:54;16.10;99.90
63260;DHT22;49390;51.380;0.098;2023-10-09T05:07:55;16.00;99.90
63260;DHT22;49390;51.380;0.098;2023-10-09T05:10:25;16.00;99.90
63260;DHT22;49390;51.380;0.098;2023-10-09T05:12:53;16.00;99.90
63260;DHT22;49390;51.380;0.098;2023-10-09T05:15:27;16.00;99.90
63260;DHT22;49390;51.380;0.098;2023-10-09T05:17:57;15.90;99.90
63260;DHT22;49390;51.380;0.098;2023-10-09T05:20:25;15.90;99.90
63260;DHT22;49390;51.380;0.098;2023-10-09T05:22:53;15.90;99.90
63260;DHT22;49390;51.380;0.098;2023-10-09T05:25:47;15.80;99.90
63260;DHT22;49390;51.380;0.098;2023-10-09T05:28:21;15.80;99.90
63260;DHT22;49390;51.380;0.098;2023-10-09T05:31:08;15.80;99.90
63260;DHT22;49390;51.380;0.098;2023-10-09T05:33:37;15.70;99.90
63260;DHT22;49390;51.380;0.098;2023-10-09T05:36:06;15.70;99.90
63260;DHT22;49390;51.380;0.098;2023-10-09T05:38:52;15.70;99.90
63260;DHT22;49390;51.380;0.098;2023-10-09T05:41:27;15.70;99.90
63260;DHT22;49390;51.380;0.098;2023-10-09T05:44:33;15.60;99.90
63260;DHT22;49390;51.380;0.098;2023-10-09T05:47:19;15.60;99.90
63260;DHT22;49390;51.380;0.098;2023-10-09T05:49:59;15.60;99.90
63260;DHT22;49390;51.380;0.098;2023-10-09T05:52:36;15.50;99.90
63260;DHT22;49390;51.380;0.098;2023-10-09T05:55:07;15.60;99.90
63260;DHT22;49390;51.380;0.098;2023-10-09T05:57:39;15.50;99.90
63260;DHT22;49390;51.380;0.098;2023-10-09T06:00:26;15.50;99.90
63260;DHT22;49390;51.380;0.098;2023-10-09T06:03:13;15.40;99.90
63260;DHT22;49390;51.380;0.098;2023-10-09T06:05:56;15.30;99.90
63260;DHT22;49390;51.380;0.098;2023-10-09T06:08:26;15.30;99.90
63260;DHT22;49390;51.380;0.098;2023-10-09T06:11:09;15.30;99.90
63260;DHT22;49390;51.380;0.098;2023-10-09T06:13:58;15.30;99.90
63260;DHT22;49390;51.380;0.098;2023-10-09T06:16:43;15.30;99.90
63260;DHT22;49390;51.380;0.098;2023-10-09T06:19:13;15.30;99.90
63260;DHT22;49390;51.380;0.098;2023-10-09T06:21:47;15.30;99.90
63260;DHT22;49390;51.380;0.098;2023-10-09T06:24:22;15.30;99.90
63260;DHT22;49390;51.380;0.098;2023-10-09T06:27:11;15.30;99.90
63260;DHT22;49390;51.380;0.098;2023-10-09T06:29:41;15.30;99.90
63260;DHT22;49390;51.380;0.098;2023-10-09T06:32:12;15.30;99.90
63260;DHT22;49390;51.380;0.098;2023-10-09T06:35:01;15.20;99.90
63260;DHT22;49390;51.380;0.098;2023-10-09T06:37:47;15.20;99.90
63260;DHT22;49390;51.380;0.098;2023-10-09T06:40:36;15.30;99.90
63260;DHT22;49390;51.380;0.098;2023-10-09T06:43:20;15.30;99.90
63260;DHT22;49390;51.380;0.098;2023-10-09T06:45:54;15.30;99.90
63260;DHT22;49390;51.380;0.098;2023-10-09T06:48:27;15.30;99.90
63260;DHT22;49390;51.380;0.098;2023-10-09T06:51:12;15.30;99.90
63260;DHT22;49390;51.380;0.098;2023-10-09T06:53:56;15.30;99.90
63260;DHT22;49390;51.380;0.098;2023-10-09T06:56:26;15.40;99.90
63260;DHT22;49390;51.380;0.098;2023-10-09T06:59:06;15.40;99.90
63260;DHT22;49390;51.380;0.098;2023-10-09T07:02:04;15.40;99.90
63260;DHT22;49390;51.380;0.098;2023-10-09T07:04:50;15.50;99.90
63260;DHT22;49390;51.380;0.098;2023-10-09T07:07:22;15.60;99.90
63260;DHT22;49390;51.380;0.098;2023-10-09T07:09:52;15.60;99.90
63260;DHT22;49390;51.380;0.098;2023-10-09T07:12:39;15.70;99.90
63260;DHT22;49390;51.380;0.098;2023-10-09T07:15:11;15.80;99.90
63260;DHT22;49390;51.380;0.098;2023-10-09T07:17:40;15.80;99.90
63260;DHT22;49390;51.380;0.098;2023-10-09T07:20:08;15.90;99.90
63260;DHT22;49390;51.380;0.098;2023-10-09T07:22:42;16.00;99.90
63260;DHT22;49390;51.380;0.098;2023-10-09T07:25:24;16.00;99.90
63260;DHT22;49390;51.380;0.098;2023-10-09T07:28:23;16.10;99.90
63260;DHT22;49390;51.380;0.098;2023-10-09T07:31:04;16.30;99.90
63260;DHT22;49390;51.380;0.098;2023-10-09T07:33:37;16.40;99.90
63260;DHT22;49390;51.380;0.098;2023-10-09T07:36:41;16.60;99.90
63260;DHT22;49390;51.380;0.098;2023-10-09T07:39:17;16.80;99.90
63260;DHT22;49390;51.380;0.098;2023-10-09T07:41:45;16.90;99.90
63260;DHT22;49390;51.380;0.098;2023-10-09T07:44:24;17.00;99.90
63260;DHT22;49390;51.380;0.098;2023-10-09T07:47:05;17.10;99.90
63260;DHT22;49390;51.380;0.098;2023-10-09T07:49:46;17.20;99.90
63260;DHT22;49390;51.380;0.098;2023-10-09T07:52:21;17.20;99.90
63260;DHT22;49390;51.380;0.098;2023-10-09T07:54:50;17.30;99.90
63260;DHT22;49390;51.380;0.098;2023-10-09T07:57:21;17.40;99.90
63260;DHT22;49390;51.380;0.098;2023-10-09T07:59:55;17.40;99.90
63260;DHT22;49390;51.380;0.098;2023-10-09T08:02:41;17.40;99.90
63260;DHT22;49390;51.380;0.098;2023-10-09T08:07:34;17.50;99.90
63260;DHT22;49390;51.380;0.098;2023-10-09T08:10:23;17.60;99.90
63260;DHT22;49390;51.380;0.098;2023-10-09T08:12:51;17.60;99.90
63260;DHT22;49390;51.380;0.098;2023-10-09T08:15:48;17.70;99.90
63260;DHT22;49390;51.380;0.098;2023-10-09T08:18:24;17.70;99.90
63260;DHT22;49390;51.380;0.098;2023-10-09T08:21:02;17.70;99.90
63260;DHT22;49390;51.380;0.098;2023-10-09T08:23:30;17.80;99.90
63260;DHT22;49390;51.380;0.098;2023-10-09T08:26:04;17.80;99.90
63260;DHT22;49390;51.380;0.098;2023-10-09T08:28:44;17.80;99.90
63260;DHT22;49390;51.380;0.098;2023-10-09T08:31:16;17.80;99.90
63260;DHT22;49390;51.380;0.098;2023-10-09T08:34:02;17.80;99.90
63260;DHT22;49390;51.380;0.098;2023-10-09T08:36:34;17.80;99.90
63260;DHT22;49390;51.380;0.098;2023-10-09T08:39:06;17.90;99.90
63260;DHT22;49390;51.380;0.098;2023-10-09T08:41:56;17.90;99.90
63260;DHT22;49390;51.380;0.098;2023-10-09T08:44:31;17.90;99.90
63260;DHT22;49390;51.380;0.098;2023-10-09T08:47:01;17.90;99.90
63260;DHT22;49390;51.380;0.098;2023-10-09T08:49:30;18.00;99.90
63260;DHT22;49390;51.380;0.098;2023-10-09T08:52:01;18.10;99.90
63260;DHT22;49390;51.380;0.098;2023-10-09T08:54:32;18.10;99.90
63260;DHT22;49390;51.380;0.098;2023-10-09T08:57:01;18.20;99.90
63260;DHT22;49390;51.380;0.098;2023-10-09T08:59:29;18.40;99.90
63260;DHT22;49390;51.380;0.098;2023-10-09T09:01:58;18.50;99.90
63260;DHT22;49390;51.380;0.098;2023-10-09T09:04:38;18.50;99.90
63260;DHT22;49390;51.380;0.098;2023-10-09T09:07:28;18.60;99.90
63260;DHT22;49390;51.380;0.098;2023-10-09T09:09:59;18.60;99.90
63260;DHT22;49390;51.380;0.098;2023-10-09T09:12:46;18.60;99.90
63260;DHT22;49390;51.380;0.098;2023-10-09T09:15:15;18.70;99.90
63260;DHT22;49390;51.380;0.098;2023-10-09T09:17:48;18.70;99.90
63260;DHT22;49390;51.380;0.098;2023-10-09T09:20:26;18.70;99.90
63260;DHT22;49390;51.380;0.098;2023-10-09T09:23:01;18.70;99.90
63260;DHT22;49390;51.380;0.098;2023-10-09T09:25:46;18.70;99.90
63260;DHT22;49390;51.380;0.098;2023-10-09T09:28:16;18.70;99.90
63260;DHT22;49390;51.380;0.098;2023-10-09T09:30:53;18.80;99.90
63260;DHT22;49390;51.380;0.098;2023-10-09T09:33:26;18.90;99.90
63260;DHT22;49390;51.380;0.098;2023-10-09T09:36:02;19.00;99.90
63260;DHT22;49390;51.380;0.098;2023-10-09T09:38:32;19.10;99.90
63260;DHT22;49390;51.380;0.098;2023-10-09T09:41:19;19.20;99.70
63260;DHT22;49390;51.380;0.098;2023-10-09T09:43:55;19.30;98.90
63260;DHT22;49390;51.380;0.098;2023-10-09T09:46:33;19.40;98.40
63260;DHT22;49390;51.380;0.098;2023-10-09T09:49:04;19.50;97.70
63260;DHT22;49390;51.380;0.098;2023-10-09T09:51:44;19.60;97.40
63260;DHT22;49390;51.380;0.098;2023-10-09T09:54:14;19.60;97.10
63260;DHT22;49390;51.380;0.098;2023-10-09T09:56:45;19.60;96.60
63260;DHT22;49390;51.380;0.098;2023-10-09T09:59:19;19.60;96.50
63260;DHT22;49390;51.380;0.098;2023-10-09T10:01:51;19.60;96.20
63260;DHT22;49390;51.380;0.098;2023-10-09T10:04:31;19.70;95.90
63260;DHT22;49390;51.380;0.098;2023-10-09T10:07:05;19.80;95.50
63260;DHT22;49390;51.380;0.098;2023-10-09T10:12:09;19.90;94.90
63260;DHT22;49390;51.380;0.098;2023-10-09T10:14:56;20.00;94.70
63260;DHT22;49390;51.380;0.098;2023-10-09T10:17:27;20.10;94.60
63260;DHT22;49390;51.380;0.098;2023-10-09T10:22:46;20.20;93.50
63260;DHT22;49390;51.380;0.098;2023-10-09T10:25:31;20.30;93.00
63260;DHT22;49390;51.380;0.098;2023-10-09T10:31:07;20.40;92.40
63260;DHT22;49390;51.380;0.098;2023-10-09T10:36:24;20.60;91.90
63260;DHT22;49390;51.380;0.098;2023-10-09T10:39:12;20.70;91.60
63260;DHT22;49390;51.380;0.098;2023-10-09T10:41:54;20.80;91.10
63260;DHT22;49390;51.380;0.098;2023-10-09T10:44:29;20.80;90.70
63260;DHT22;49390;51.380;0.098;2023-10-09T10:47:08;20.90;90.40
63260;DHT22;49390;51.380;0.098;2023-10-09T10:49:54;21.00;90.00
63260;DHT22;49390;51.380;0.098;2023-10-09T10:52:39;21.10;89.40
63260;DHT22;49390;51.380;0.098;2023-10-09T10:55:12;21.20;88.70
63260;DHT22;49390;51.380;0.098;2023-10-09T10:58:17;21.40;87.70
63260;DHT22;49390;51.380;0.098;2023-10-09T11:00:54;21.50;86.50
63260;DHT22;49390;51.380;0.098;2023-10-09T11:03:26;21.70;85.70
63260;DHT22;49390;51.380;0.098;2023-10-09T11:06:01;21.80;84.90
63260;DHT22;49390;51.380;0.098;2023-10-09T11:08:51;21.70;83.90
63260;DHT22;49390;51.380;0.098;2023-10-09T11:11:23;21.80;83.30
63260;DHT22;49390;51.380;0.098;2023-10-09T11:14:11;21.80;83.00
63260;DHT22;49390;51.380;0.098;2023-10-09T11:17:16;21.80;82.40
63260;DHT22;49390;51.380;0.098;2023-10-09T11:19:53;21.90;82.20
63260;DHT22;49390;51.380;0.098;2023-10-09T11:22:21;21.90;81.80
63260;DHT22;49390;51.380;0.098;2023-10-09T11:25:04;22.00;81.30
63260;DHT22;49390;51.380;0.098;2023-10-09T11:27:40;22.00;80.90
63260;DHT22;49390;51.380;0.098;2023-10-09T11:30:31;22.20;80.40
63260;DHT22;49390;51.380;0.098;2023-10-09T11:33:05;22.20;79.80
63260;DHT22;49390;51.380;0.098;2023-10-09T11:35:33;22.30;79.20
63260;DHT22;49390;51.380;0.098;2023-10-09T11:38:02;22.40;78.40
63260;DHT22;49390;51.380;0.098;2023-10-09T11:40:49;22.50;77.90
63260;DHT22;49390;51.380;0.098;2023-10-09T11:43:20;22.60;77.80
63260;DHT22;49390;51.380;0.098;2023-10-09T11:46:09;22.80;77.40
63260;DHT22;49390;51.380;0.098;2023-10-09T11:48:39;22.80;76.30
63260;DHT22;49390;51.380;0.098;2023-10-09T11:51:36;23.00;75.70
63260;DHT22;49390;51.380;0.098;2023-10-09T11:54:32;23.10;75.20
63260;DHT22;49390;51.380;0.098;2023-10-09T11:57:02;23.10;74.60
63260;DHT22;49390;51.380;0.098;2023-10-09T11:59:31;23.20;74.20
63260;DHT22;49390;51.380;0.098;2023-10-09T12:02:09;23.30;73.70
63260;DHT22;49390;51.380;0.098;2023-10-09T12:04:40;23.30;73.10
63260;DHT22;49390;51.380;0.098;2023-10-09T12:07:14;23.40;72.90
63260;DHT22;49390;51.380;0.098;2023-10-09T12:09:42;23.50;72.50
63260;DHT22;49390;51.380;0.098;2023-10-09T12:12:10;23.50;72.20
63260;DHT22;49390;51.380;0.098;2023-10-09T12:14:38;23.60;71.80
63260;DHT22;49390;51.380;0.098;2023-10-09T12:17:08;23.70;71.30
63260;DHT22;49390;51.380;0.098;2023-10-09T12:19:38;23.80;70.90
63260;DHT22;49390;51.380;0.098;2023-10-09T12:22:08;23.80;70.50
63260;DHT22;49390;51.380;0.098;2023-10-09T12:24:44;23.90;70.30
63260;DHT22;49390;51.380;0.098;2023-10-09T12:27:13;24.00;69.90
63260;DHT22;49390;51.380;0.098;2023-10-09T12:29:41;24.00;69.60
63260;DHT22;49390;51.380;0.098;2023-10-09T12:32:16;23.90;69.50
63260;DHT22;49390;51.380;0.098;2023-10-09T12:34:47;23.90;69.60
63260;DHT22;49390;51.380;0.098;2023-10-09T12:37:19;23.80;69.80
63260;DHT22;49390;51.380;0.098;2023-10-09T12:39:48;23.80;70.10
63260;DHT22;49390;51.380;0.098;2023-10-09T12:42:17;23.80;70.10
63260;DHT22;49390;51.380;0.098;2023-10-09T12:44:45;23.90;69.80
63260;DHT22;49390;51.380;0.098;2023-10-09T12:47:14;23.90;69.50
63260;DHT22;49390;51.380;0.098;2023-10-09T12:49:44;24.00;69.20
63260;DHT22;49390;51.380;0.098;2023-10-09T12:52:15;24.00;68.80
63260;DHT22;49390;51.380;0.098;2023-10-09T12:54:44;24.00;68.60
63260;DHT22;49390;51.380;0.098;2023-10-09T12:57:15;24.10;68.50
63260;DHT22;49390;51.380;0.098;2023-10-09T12:59:43;24.30;68.30
63260;DHT22;49390;51.380;0.098;2023-10-09T13:02:16;24.30;67.80
63260;DHT22;49390;51.380;0.098;2023-10-09T13:04:58;24.40;67.40
63260;DHT22;49390;51.380;0.098;2023-10-09T13:07:28;24.60;67.00
63260;DHT22;49390;51.380;0.098;2023-10-09T13:09:56;24.70;66.70
63260;DHT22;49390;51.380;0.098;2023-10-09T13:12:37;24.80;66.40
63260;DHT22;49390;51.380;0.098;2023-10-09T13:15:09;24.80;66.20
63260;DHT22;49390;51.380;0.098;2023-10-09T13:17:38;24.70;66.20
63260;DHT22;49390;51.380;0.098;2023-10-09T13:20:09;24.70;66.40
63260;DHT22;49390;51.380;0.098;2023-10-09T13:22:47;24.70;66.40
63260;DHT22;49390;51.380;0.098;2023-10-09T13:25:16;24.70;66.00
63260;DHT22;49390;51.380;0.098;2023-10-09T13:31:31;24.80;65.70
63260;DHT22;49390;51.380;0.098;2023-10-09T13:34:04;24.90;65.50
63260;DHT22;49390;51.380;0.098;2023-10-09T13:36:42;25.00;65.20
63260;DHT22;49390;51.380;0.098;2023-10-09T13:39:23;25.10;65.00
63260;DHT22;49390;51.380;0.098;2023-10-09T13:41:59;25.10;64.80
63260;DHT22;49390;51.380;0.098;2023-10-09T13:44:29;25.10;64.60
63260;DHT22;49390;51.380;0.098;2023-10-09T13:47:03;25.10;64.50
63260;DHT22;49390;51.380;0.098;2023-10-09T13:49:34;25.10;64.30
63260;DHT22;49390;51.380;0.098;2023-10-09T13:52:05;25.10;64.30
63260;DHT22;49390;51.380;0.098;2023-10-09T13:54:35;25.00;64.40
63260;DHT22;49390;51.380;0.098;2023-10-09T13:57:04;25.00;64.40
63260;DHT22;49390;51.380;0.098;2023-10-09T13:59:35;25.00;64.50
63260;DHT22;49390;51.380;0.098;2023-10-09T14:02:03;25.00;64.70
63260;DHT22;49390;51.380;0.098;2023-10-09T14:04:45;25.00;64.70
63260;DHT22;49390;51.380;0.098;2023-10-09T14:07:15;25.00;64.80
63260;DHT22;49390;51.380;0.098;2023-10-09T14:09:48;25.00;65.00
63260;DHT22;49390;51.380;0.098;2023-10-09T14:12:22;24.90;66.00
63260;DHT22;49390;51.380;0.098;2023-10-09T14:14:52;25.00;65.40
63260;DHT22;49390;51.380;0.098;2023-10-09T14:17:23;25.00;65.50
63260;DHT22;49390;51.380;0.098;2023-10-09T14:19:53;25.00;65.60
63260;DHT22;49390;51.380;0.098;2023-10-09T14:22:23;25.00;65.70
63260;DHT22;49390;51.380;0.098;2023-10-09T14:24:54;25.10;65.60
63260;DHT22;49390;51.380;0.098;2023-10-09T14:27:27;25.10;65.70
63260;DHT22;49390;51.380;0.098;2023-10-09T14:29:58;25.10;65.70
63260;DHT22;49390;51.380;0.098;2023-10-09T14:32:30;25.00;65.70
63260;DHT22;49390;51.380;0.098;2023-10-09T14:35:03;25.00;65.80
63260;DHT22;49390;51.380;0.098;2023-10-09T14:37:41;25.00;65.80
63260;DHT22;49390;51.380;0.098;2023-10-09T14:40:12;25.00;65.90
63260;DHT22;49390;51.380;0.098;2023-10-09T14:42:40;24.50;65.80
63260;DHT22;49390;51.380;0.098;2023-10-09T14:45:12;25.00;66.30
63260;DHT22;49390;51.380;0.098;2023-10-09T14:47:44;24.90;66.30
63260;DHT22;49390;51.380;0.098;2023-10-09T14:50:16;25.00;66.40
63260;DHT22;49390;51.380;0.098;2023-10-09T14:52:51;24.90;66.50
63260;DHT22;49390;51.380;0.098;2023-10-09T14:55:20;24.90;66.60
63260;DHT22;49390;51.380;0.098;2023-10-09T14:57:57;24.90;66.70
63260;DHT22;49390;51.380;0.098;2023-10-09T15:00:27;24.90;66.90
63260;DHT22;49390;51.380;0.098;2023-10-09T15:03:01;24.80;67.10
63260;DHT22;49390;51.380;0.098;2023-10-09T15:05:34;24.80;67.30
63260;DHT22;49390;51.380;0.098;2023-10-09T15:08:02;24.90;67.60
63260;DHT22;49390;51.380;0.098;2023-10-09T15:10:32;24.80;67.80
63260;DHT22;49390;51.380;0.098;2023-10-09T15:13:00;24.70;68.00
63260;DHT22;49390;51.380;0.098;2023-10-09T15:15:29;24.70;68.30
63260;DHT22;49390;51.380;0.098;2023-10-09T15:17:58;24.60;68.50
63260;DHT22;49390;51.380;0.098;2023-10-09T15:20:27;24.60;69.00
63260;DHT22;49390;51.380;0.098;2023-10-09T15:22:55;24.60;69.20
63260;DHT22;49390;51.380;0.098;2023-10-09T15:25:23;24.50;69.40
63260;DHT22;49390;51.380;0.098;2023-10-09T15:27:51;24.50;69.50
63260;DHT22;49390;51.380;0.098;2023-10-09T15:30:19;24.40;69.70
63260;DHT22;49390;51.380;0.098;2023-10-09T15:32:47;24.40;70.00
63260;DHT22;49390;51.380;0.098;2023-10-09T15:36:10;24.40;69.60
63260;DHT22;49390;51.380;0.098;2023-10-09T15:38:40;24.40;70.20
63260;DHT22;49390;51.380;0.098;2023-10-09T15:41:08;24.30;70.30
63260;DHT22;49390;51.380;0.098;2023-10-09T15:43:36;24.30;70.50
63260;DHT22;49390;51.380;0.098;2023-10-09T15:46:10;24.30;70.70
63260;DHT22;49390;51.380;0.098;2023-10-09T15:48:39;24.30;70.70
63260;DHT22;49390;51.380;0.098;2023-10-09T15:51:12;24.30;70.70
63260;DHT22;49390;51.380;0.098;2023-10-09T15:53:46;24.20;70.80
63260;DHT22;49390;51.380;0.098;2023-10-09T15:56:14;24.20;70.80
63260;DHT22;49390;51.380;0.098;2023-10-09T15:58:46;24.20;70.90
63260;DHT22;49390;51.380;0.098;2023-10-09T16:01:16;24.10;71.00
63260;DHT22;49390;51.380;0.098;2023-10-09T16:03:48;24.10;71.20
63260;DHT22;49390;51.380;0.098;2023-10-09T16:06:17;24.00;71.20
63260;DHT22;49390;51.380;0.098;2023-10-09T16:08:47;24.00;71.30
63260;DHT22;49390;51.380;0.098;2023-10-09T16:11:17;24.00;71.40
63260;DHT22;49390;51.380;0.098;2023-10-09T16:13:46;23.90;71.50
63260;DHT22;49390;51.380;0.098;2023-10-09T16:16:14;23.90;71.70
63260;DHT22;49390;51.380;0.098;2023-10-09T16:18:43;23.90;71.90
63260;DHT22;49390;51.380;0.098;2023-10-09T16:21:11;23.80;72.10
63260;DHT22;49390;51.380;0.098;2023-10-09T16:23:40;23.80;72.40
63260;DHT22;49390;51.380;0.098;2023-10-09T16:26:10;23.80;72.60
63260;DHT22;49390;51.380;0.098;2023-10-09T16:28:38;23.70;72.80
63260;DHT22;49390;51.380;0.098;2023-10-09T16:31:08;23.70;73.10
63260;DHT22;49390;51.380;0.098;2023-10-09T16:33:42;23.70;73.30
63260;DHT22;49390;51.380;0.098;2023-10-09T16:36:10;23.60;74.10
63260;DHT22;49390;51.380;0.098;2023-10-09T16:38:38;23.50;73.60
63260;DHT22;49390;51.380;0.098;2023-10-09T16:41:07;23.50;74.00